KMIA/MIA METAR and TAF weather

Enter ICAO airport designator
Station Type Date Time Source
KMIA METAR 2021/07/29 19:13 UTC NOAA

KMIA 291913Z 14009KT 6SM -TSRA SCT035CB BKN060 BKN090 OVC250 25/22 A3005 RMK AO2 FRQ LTGICCG OHD-NE-E AND S-SW TS OHD-NE-E AND S-SW MOV NE P0000 T02500222


Station Type Date Time Source
KMIA Decoded METAR 2021/07/29 19:13 UTC NOAA

MIAMI INTERNATIONAL AIRPORT , FL, United States (KMIA) 25-47N 080-19W 8M
Jul 29, 2021 - 03:13 PM EDT / 2021.07.29 1913 UTC
Wind: from the SE (140 degrees) at 10 MPH (9 KT):0
Visibility: 6 mile(s):0
Sky conditions: overcast
Weather: light rain with thunder; Cumulonimbus clouds, lightning observed
Precipitation last hour: A trace
Temperature: 77.0 F (25.0 C)
Dew Point: 72.0 F (22.2 C)
Relative Humidity: 84%
Pressure (altimeter): 30.05 in. Hg (1017 hPa)
ob: KMIA 291913Z 14009KT 6SM -TSRA SCT035CB BKN060 BKN090 OVC250 25/22 A3005 RMK AO2 FRQ LTGICCG OHD-NE-E AND S-SW TS OHD-NE-E AND S-SW MOV NE P0000 T02500222
cycle: 19

Station Type Date Time Source
KMIA TAF 2021/07/29 19:06 UTC NOAA

TAF
AMD KMIA 291903Z 2919/3024 13007KT 6SM SHRA VCTS SCT030CB BKN050
TEMPO 2919/2920 VRB15G25KT 3SM TSRA BKN030CB
FM292100 14008KT P6SM VCTS SCT030CB BKN250
FM300100 VRB03KT P6SM FEW025 SCT250
FM301700 14009KT P6SM VCSH SCT030

Example: see airport list